Millstone, Connecticut
Current Conditions -  °F | °C
As of 1:56 PM on Friday 24 Oct 2014 (Local Time) from KGON Reporting Station
Overcast Overcast  
Wind Chill: 53°   Ceiling: 2500
Heat Index: 53°   Visibility: 10mi
Dew Point: 44°   Wind: 13mph
Humidity: 71%   Direction: 320°NW
Pressure: 29.71"   Gusts: NA
Location:  41.3583°N, 72.1558°W
Report Text: KGON 241756Z 32011KT 10SM OVC025 12/07 A2971 RMK AO2 SLP059 60000 T01170067 10122 20089 58007
Loading
Personal Weather Stations






























Interactive Weather Map
Tropical Storm Tracking
New forecast layout! Learn more

10-Day Weather Forecast

Advertisements
Track Severe Weather on mobile